Alexandria, Canada
Current Conditions -  °F | °C
As of 6:53 AM on Friday 19 Dec 2014 (Local Time) from KMSS Reporting Station
Overcast Overcast  
Wind Chill: 13°   Ceiling: 1700
Heat Index: 23°   Visibility: 10mi
Dew Point: 16°   Wind: 9mph
Humidity: 74%   Direction: 290°WNW
Pressure: 30.08"   Gusts: NA
Location:  45.3°N, 74.63°W
Report Text: KMSS 191153Z AUTO 29008KT 10SM OVC017 M05/M09 A3008 RMK AO2 SLP193 T10501089 11033 21050 53015
Loading
Personal Weather Stations






























Interactive Weather Map New forecast layout! Learn more

10-Day Weather Forecast

Advertisements
Track Severe Weather on mobile